Ashville, OH

2:35 AM EST on January 29, 2015 (GMT -0500)
Pickaway-Fairfield Line | Change Station
CLOSE
Current Station
Personal Weather Station
Location: Ashville, OH
Elevation: 815 ft
Nearby Weather Stations
Active Advisory: Special Statement

Elev 815 ft 39.71 °N, 82.84 °W | Updated 1 minute ago

Partly Cloudy
Partly Cloudy
25.9 °F
Feels Like 20 °F
N
4.7
Wind Variable Wind from ESE

Today
High -- | Low -- °F
--% Chance of Precip.
Yesterday
High -- | Low -- °F
Precip. -- in
7:42 AM 5:47 PM
Waxing Gibbous, 72% visible
Pressure 30.11 in
Visibility 10.0 miles
Clouds Clear
Windchill 20 °F
Dew Point 20 °F
Humidity 77%
Rainfall 0.00 in
Snow Depth Not available.
UV 0 out of 12
Pollen .10 out of 12
Air Quality Not available.
Flu Activity Not available.
METAR KLCK 290715Z AUTO 13006KT 10SM CLR M03/M08 A3011 RMK AO2 T10321078

More Conditions Fewer Conditions

Pressure 30.11 in
Visibility 10.0 miles
Clouds Clear
Windchill 20 °F
Dew Point 20 °F
Humidity 77%
Rainfall 0.00 in
Snow Depth Not available.
UV 0 out of 12
Pollen .10 out of 12
Air Quality Not available.
Flu Activity Not available.
METAR KLCK 290715Z AUTO 13006KT 10SM CLR M03/M08 A3011 RMK AO2 T10321078

More Conditions Fewer Conditions

10-Day Weather Forecast

Almanac

Astronomy

Jan. 29, 2015 Rise Set
Actual Time
Civil Twilight
Nautical Twilight
Astronomical Twilight
Moon
Length of Visible Light
Length of Day
Tomorrow will be .
, % of the Moon is Illuminated

Today's Extremes

State Highs State Lows

Community

WunderPhotos

Upload Photos

1,791,387 photos uploaded!

WunderBlogs® & News

Nearby

Air Quality

  Air Quality AQ Index Pollutant
Not available.

Snow Depth

Station Depth Elevation

Earthquake Activity

City Distance Mag. Time & Date
Minimum magnitude displayed is 2.5.

Coastal Water Temperatures

Place Temperature

Nearby Weather Stations